Terminal Aerodrome Forecast
Issued by NWS

Home | Current Version | Previous Version | Text Only | Print | Product List | Glossary On
Versions: 1 2 3 4 5 6 7 8 9 10 11 12 13 14 15 16 17 18
000
FTUS41 KCAR 291100
TAFHUL
TAF
KHUL 291122Z 2912/3012 19009KT P6SM BKN015 OVC018
     FM291600 24009KT P6SM BKN030
     FM291800 25008KT P6SM BKN040
     FM292000 25007KT P6SM SCT070
     FM300800 00000KT 5SM BR SCT005=

USA.gov is the U.S. government's official web portal to all federal, state and local government web resources and services.